createdAt,value
2023-04-04T00:03:07.096Z,47.20
2023-04-04T00:08:10.716Z,47.30
2023-04-04T00:13:15.961Z,47.40
2023-04-04T00:18:19.524Z,47.40
2023-04-04T00:23:23.995Z,47.40
2023-04-04T00:28:29.095Z,47.30
2023-04-04T00:33:32.545Z,47.40
2023-04-04T00:38:35.938Z,47.50
2023-04-04T00:43:41.378Z,47.50
2023-04-04T00:48:44.860Z,47.50
2023-04-04T00:53:49.665Z,47.60
2023-04-04T00:58:54.319Z,47.40
2023-04-04T01:03:57.989Z,47.50
2023-04-04T01:09:04.887Z,47.50
2023-04-04T01:14:09.772Z,47.40
2023-04-04T01:19:23.618Z,47.40
2023-04-04T01:24:35.119Z,47.40
2023-04-04T01:29:42.472Z,47.50
2023-04-04T01:35:12.864Z,47.60
2023-04-04T01:40:22.316Z,47.50
2023-04-04T01:45:29.861Z,47.60
2023-04-04T01:50:35.854Z,47.60
2023-04-04T01:55:41.277Z,47.70
2023-04-04T02:00:47.392Z,47.70
2023-04-04T02:05:51.237Z,47.60
2023-04-04T02:10:57.617Z,47.70
2023-04-04T02:16:05.348Z,47.80
2023-04-04T02:21:09.964Z,47.90
2023-04-04T02:26:27.785Z,47.90
2023-04-04T02:31:32.312Z,47.90
2023-04-04T02:36:36.804Z,47.90
2023-04-04T02:41:41.688Z,47.90
2023-04-04T02:46:46.584Z,47.80
2023-04-04T02:51:52.714Z,47.80
2023-04-04T02:56:59.618Z,47.80
2023-04-04T03:02:04.745Z,47.80
2023-04-04T03:07:09.083Z,48.50
2023-04-04T03:12:12.819Z,47.80
2023-04-04T03:17:22.479Z,47.80
2023-04-04T03:22:25.744Z,47.90
2023-04-04T03:27:33.462Z,47.90
2023-04-04T03:32:42.670Z,48.00
2023-04-04T03:37:46.074Z,47.90
2023-04-04T03:42:49.335Z,47.90
2023-04-04T03:47:57.269Z,47.90
2023-04-04T03:53:01.804Z,47.90
2023-04-04T03:58:05.040Z,47.90
2023-04-04T04:03:14.119Z,47.80
2023-04-04T04:08:22.000Z,47.80
2023-04-04T04:13:29.665Z,47.80
2023-04-04T04:18:34.613Z,47.90
2023-04-04T04:23:42.278Z,47.80
2023-04-04T04:28:48.251Z,47.90
2023-04-04T04:34:14.474Z,48.00
2023-04-04T04:39:18.826Z,48.10
2023-04-04T04:44:36.479Z,48.10
2023-04-04T04:49:43.542Z,48.00
2023-04-04T04:54:48.465Z,48.00
2023-04-04T04:59:51.946Z,48.10
2023-04-04T05:04:59.041Z,48.10
2023-04-04T05:10:03.822Z,48.30
2023-04-04T05:15:09.371Z,48.90
2023-04-04T05:20:14.901Z,48.30
2023-04-04T05:25:24.617Z,48.40
2023-04-04T05:30:28.926Z,48.50
2023-04-04T05:35:47.277Z,48.50
2023-04-04T05:40:54.436Z,48.50
2023-04-04T05:45:59.091Z,48.60
2023-04-04T05:51:05.469Z,48.70
2023-04-04T05:56:20.622Z,48.80
2023-04-04T06:01:23.990Z,48.90
2023-04-04T06:06:31.352Z,49.00
2023-04-04T06:11:34.660Z,49.10
2023-04-04T06:16:44.411Z,49.20
2023-04-04T06:21:56.668Z,49.30
2023-04-04T06:27:00.700Z,49.30
2023-04-04T06:32:07.333Z,49.30
2023-04-04T06:37:16.339Z,49.40
2023-04-04T06:42:39.993Z,49.30
2023-04-04T06:47:44.291Z,49.40
2023-04-04T06:52:50.790Z,49.40
2023-04-04T06:58:03.110Z,49.40
2023-04-04T07:03:06.337Z,49.40
2023-04-04T07:08:11.770Z,49.50
2023-04-04T07:13:20.663Z,49.70
2023-04-04T07:18:24.032Z,49.70
2023-04-04T07:23:29.032Z,49.70
2023-04-04T07:28:37.921Z,49.80
2023-04-04T07:33:41.152Z,49.80
2023-04-04T07:38:47.673Z,49.70
2023-04-04T07:43:54.580Z,49.60
2023-04-04T07:48:57.932Z,49.70
2023-04-04T07:54:04.551Z,49.90
2023-04-04T07:59:07.980Z,50.00
2023-04-04T08:04:11.635Z,49.90
2023-04-04T08:09:16.678Z,49.50
2023-04-04T08:14:19.883Z,46.70
2023-04-04T08:19:23.194Z,47.80
2023-04-04T08:24:28.327Z,47.80
2023-04-04T08:29:32.846Z,48.00
2023-04-04T08:34:36.388Z,47.80
2023-04-04T08:39:41.334Z,48.30
2023-04-04T08:44:47.140Z,47.60
2023-04-04T08:49:52.803Z,46.90
2023-04-04T08:54:58.890Z,48.10
2023-04-04T09:00:03.265Z,47.00
2023-04-04T09:05:09.509Z,46.50
2023-04-04T09:10:17.943Z,45.60
2023-04-04T09:15:21.755Z,44.90
2023-04-04T09:20:39.802Z,45.00
2023-04-04T09:30:55.663Z,46.40
2023-04-04T09:36:04.202Z,45.70
2023-04-04T09:41:11.318Z,41.10
2023-04-04T09:46:16.083Z,42.50
2023-04-04T09:51:19.538Z,44.50
2023-04-04T09:56:35.552Z,44.40
2023-04-04T10:01:43.607Z,44.10
2023-04-04T10:06:47.281Z,43.30
2023-04-04T10:11:52.034Z,45.80
2023-04-04T10:17:01.492Z,46.20
2023-04-04T10:22:06.202Z,46.50
2023-04-04T10:27:14.526Z,46.20
2023-04-04T10:32:24.325Z,43.60
2023-04-04T10:37:29.523Z,43.40
2023-04-04T10:42:40.047Z,44.40
2023-04-04T10:47:45.543Z,43.90
2023-04-04T10:52:57.835Z,45.00
2023-04-04T10:58:08.452Z,45.10
2023-04-04T11:03:15.352Z,45.70
2023-04-04T11:08:20.717Z,45.20
2023-04-04T11:13:35.287Z,45.50
2023-04-04T11:18:49.036Z,45.60
2023-04-04T11:24:16.977Z,44.10
2023-04-04T11:29:51.902Z,43.00
2023-04-04T11:35:00.962Z,41.90
2023-04-04T11:40:12.733Z,44.00
2023-04-04T11:45:22.469Z,44.90
2023-04-04T11:50:30.955Z,44.00
2023-04-04T11:55:34.618Z,43.80
2023-04-04T12:00:42.132Z,45.00
2023-04-04T12:05:47.776Z,44.10
2023-04-04T12:10:57.852Z,43.80
2023-04-04T12:16:03.911Z,44.50
2023-04-04T12:21:13.176Z,42.20
2023-04-04T12:26:16.975Z,44.40
2023-04-04T12:31:26.318Z,45.00
2023-04-04T12:36:31.566Z,44.90
2023-04-04T12:41:35.635Z,44.90
2023-04-04T12:46:42.627Z,44.80
2023-04-04T12:51:46.210Z,44.70
2023-04-04T12:56:49.914Z,44.60
2023-04-04T13:01:55.027Z,44.20
2023-04-04T13:06:59.997Z,42.90
2023-04-04T13:12:06.090Z,43.60
2023-04-04T13:17:11.011Z,43.70
2023-04-04T13:22:14.572Z,43.30
2023-04-04T13:27:17.895Z,43.70
2023-04-04T13:32:22.748Z,43.80
2023-04-04T13:37:27.092Z,43.60
2023-04-04T13:42:36.876Z,44.20
2023-04-04T13:47:45.501Z,43.30
2023-04-04T13:52:48.843Z,42.60
2023-04-04T14:09:20.542Z,44.00
2023-04-04T14:14:41.244Z,42.40
2023-04-04T14:20:19.142Z,43.30
2023-04-04T14:25:30.949Z,42.20
2023-04-04T14:31:10.017Z,42.50
2023-04-04T14:42:41.055Z,42.40
2023-04-04T14:48:07.095Z,42.90
2023-04-04T14:53:32.120Z,43.50
2023-04-04T14:58:55.495Z,42.30
2023-04-04T15:04:21.276Z,42.70
2023-04-04T15:09:46.107Z,41.80
2023-04-04T15:15:16.084Z,42.50
2023-04-04T15:20:40.010Z,42.10
2023-04-04T15:26:05.286Z,42.40
2023-04-04T15:31:28.149Z,42.00
2023-04-04T15:36:51.210Z,41.90
2023-04-04T15:42:24.169Z,42.00
2023-04-04T15:47:48.241Z,42.20
2023-04-04T15:53:20.255Z,41.50
2023-04-04T15:59:00.505Z,42.20
2023-04-04T16:04:24.225Z,41.90
2023-04-04T16:09:47.117Z,41.80
2023-04-04T16:15:15.189Z,41.30
2023-04-04T16:20:44.401Z,41.90
2023-04-04T16:26:10.115Z,41.40
2023-04-04T16:31:35.152Z,42.10
2023-04-04T16:36:58.185Z,41.40
2023-04-04T16:42:27.208Z,42.00
2023-04-04T16:47:52.247Z,41.50
2023-04-04T16:53:15.192Z,41.70
2023-04-04T16:58:38.215Z,41.30
2023-04-04T17:04:03.172Z,41.90
2023-04-04T17:09:29.582Z,41.50
2023-04-04T17:14:53.265Z,41.80
2023-04-04T17:20:30.238Z,41.40
2023-04-04T17:25:57.199Z,41.80
2023-04-04T17:31:22.249Z,41.50
2023-04-04T17:36:54.514Z,41.80
2023-04-04T17:42:17.155Z,41.50
2023-04-04T17:47:40.251Z,42.10
2023-04-04T17:53:05.392Z,42.10
2023-04-04T17:58:28.375Z,42.20
2023-04-04T18:03:52.421Z,41.80
2023-04-04T18:09:17.410Z,39.10
2023-04-04T18:14:40.201Z,38.70
2023-04-04T18:20:07.651Z,39.20
2023-04-04T18:25:32.215Z,39.00
2023-04-04T18:30:57.220Z,39.10
2023-04-04T18:36:21.418Z,39.40
2023-04-04T18:41:46.217Z,39.80
2023-04-04T18:47:11.220Z,40.00
2023-04-04T18:52:34.179Z,39.50
2023-04-04T18:57:59.304Z,39.70
2023-04-04T19:03:22.346Z,40.00
2023-04-04T19:08:46.252Z,40.10
2023-04-04T19:14:11.289Z,40.50
2023-04-04T19:19:38.238Z,40.40
2023-04-04T19:25:02.237Z,40.60
2023-04-04T19:30:51.266Z,40.50
2023-04-04T19:36:23.210Z,39.50
2023-04-04T19:41:49.229Z,39.50
2023-04-04T19:47:14.214Z,40.00
2023-04-04T19:52:39.393Z,39.70
2023-04-04T20:04:53.298Z,39.90
2023-04-04T20:10:11.358Z,40.40
2023-04-04T20:16:12.127Z,40.30
2023-04-04T20:29:10.355Z,40.60
2023-04-04T20:34:42.879Z,41.30
2023-04-04T20:39:55.471Z,41.60
2023-04-04T20:45:01.782Z,41.80
2023-04-04T20:50:43.938Z,41.90
2023-04-04T20:55:47.087Z,42.20
2023-04-04T21:00:52.089Z,42.00
2023-04-04T21:06:03.513Z,42.20
2023-04-04T21:11:08.016Z,42.40
2023-04-04T21:16:18.111Z,42.30
2023-04-04T21:21:21.748Z,42.20
2023-04-04T21:26:33.393Z,42.20
2023-04-04T21:31:43.358Z,42.30
2023-04-04T21:36:50.404Z,42.30
2023-04-04T21:41:58.103Z,42.30
2023-04-04T21:47:02.866Z,42.40
2023-04-04T21:52:06.290Z,42.40
2023-04-04T21:57:13.368Z,42.40
2023-04-04T22:02:21.735Z,42.50
2023-04-04T22:07:24.919Z,42.70
2023-04-04T22:12:28.201Z,42.60
2023-04-04T22:17:32.812Z,42.80
2023-04-04T22:22:43.776Z,42.80
2023-04-04T22:27:49.904Z,42.80
2023-04-04T22:32:59.669Z,42.80
2023-04-04T22:38:03.605Z,42.90
2023-04-04T22:43:07.008Z,42.80
2023-04-04T22:48:11.495Z,42.90
2023-04-04T22:53:15.237Z,43.00
2023-04-04T22:58:18.461Z,43.00
2023-04-04T23:03:22.971Z,43.00
2023-04-04T23:08:26.258Z,42.90
2023-04-04T23:13:29.429Z,42.80
2023-04-04T23:18:33.992Z,42.80
2023-04-04T23:23:38.992Z,42.90
2023-04-04T23:28:42.583Z,42.90
2023-04-04T23:33:47.419Z,43.00
2023-04-04T23:38:50.830Z,43.00
2023-04-04T23:43:54.497Z,42.90
2023-04-04T23:49:06.563Z,43.00
2023-04-04T23:54:11.002Z,43.10
2023-04-04T23:59:14.681Z,43.00
